ADDS METAR Data INFO
IDs: Format: Raw Decoded Include TAF

Data at: 0643 UTC 23 Feb 2018

KONL 230635Z AUTO 25008KT 7SM CLR M09/M10 A3012 RMK AO2 T10951098
KONL 230615Z AUTO 24005KT 10SM CLR M09/M09 A3012 RMK AO2 T10871091
KONL 230555Z AUTO 25006KT 10SM CLR M08/M09 A3012 RMK AO2 60004 T10841086 11054 21085 410461085
KONL 230535Z AUTO 24004KT 10SM SCT029 SCT075 M08/M08 A3012 RMK AO2 T10781083
KONL 230515Z AUTO 24004KT 10SM BKN029 BKN047 M07/M07 A3013 RMK AO2 T10671074
KONL 230455Z AUTO 23004KT 10SM BKN029 OVC047 M06/M07 A3013 RMK AO2 T10621067
KONL 230435Z AUTO 23004KT 10SM BKN031 OVC043 M06/M07 A3013 RMK AO2 T10601066
KONL 230415Z AUTO 23004KT 10SM OVC045 M06/M06 A3014 RMK AO2 T10591065
KONL 230355Z AUTO 23003KT 10SM OVC045 M06/M06 A3013 RMK AO2 T10581065
KONL 230335Z AUTO 22003KT 10SM OVC045 M06/M06 A3012 RMK AO2 T10561062
KONL 230315Z AUTO 22003KT 10SM OVC045 M05/M06 A3012 RMK AO2 T10551060
KONL 230255Z AUTO 00000KT 10SM OVC047 M05/M06 A3013 RMK AO2 P0001 60004 T10551060
KONL 230235Z AUTO 00000KT 10SM OVC047 M05/M06 A3013 RMK AO2 T10551060
KONL 230215Z AUTO 21003KT 10SM OVC047 M05/M06 A3013 RMK AO2 T10551058
KONL 230155Z AUTO 00000KT 10SM OVC047 M05/M06 A3013 RMK AO2 P0001 T10551058
KONL 230135Z AUTO 22003KT 5SM -SN OVC049 M05/M06 A3014 RMK AO2 T10551057
KONL 230115Z AUTO 00000KT 4SM -SN OVC049 M05/M06 A3014 RMK AO2 T10551057
KONL 230055Z AUTO 19003KT 5SM -SN OVC049 M05/M06 A3015 RMK AO2 P0002 T10551057
KONL 230035Z AUTO 00000KT 7SM -SN OVC049 M06/M06 A3014 RMK AO2 P0002 T10561058
KONL 230015Z AUTO 16003KT 3SM -SN SCT020 SCT027 OVC049 M06/M06 A3013 RMK AO2 P0001 T10561059
KONL 222355Z AUTO 15003KT 1SM -SN BKN010 OVC015 M06/M06 A3013 RMK AO2 P0007 60010 T10571060 11046 21057
KONL 222335Z AUTO 00000KT 1/2SM SN OVC012 M06/M06 A3013 RMK AO2 P0004 T10561060
KONL 222315Z AUTO 00000KT 1SM -SN BKN008 OVC017 M06/M06 A3013 RMK AO2 T10561060
KONL 222255Z AUTO 00000KT 1/2SM SN OVC008 M06/M06 A3015 RMK AO2 T10561060
KONL 222235Z AUTO 00000KT 1SM -SN BKN012 OVC018 M05/M06 A3016 RMK AO2 T10551058
KONL 222215Z AUTO 16005KT 3/4SM -SN OVC007 M05/M06 A3017 RMK AO2 T10541059
KONL 222155Z AUTO 13005KT 1/2SM SN OVC007 M05/M06 A3016 RMK AO2 T10551060
KONL 222135Z AUTO 12008KT 1SM -SN BKN007 OVC013 M05/M06 A3015 RMK AO2 T10531061
KONL 222115Z AUTO 12009KT 3/4SM -SN OVC007 M05/M06 A3015 RMK AO2 T10511060
KONL 222055Z AUTO 10009KT 1/2SM SN OVC005 M05/M06 A3015 RMK AO2 P0001 60003 T10521060
KONL 222035Z AUTO 12007KT 1/2SM SN OVC007 M05/M06 A3017 RMK AO2 P0001 T10511061
KONL 222015Z AUTO 10004KT 2 1/2SM UP BKN010 OVC029 M05/M06 A3017 RMK AO2 T10501065
KONL 221955Z AUTO 09006KT 1 3/4SM -SN BKN010 BKN024 OVC030 M05/M06 A3017 RMK AO2 T10471061
KONL 221935Z AUTO 12005KT 2 1/2SM -SN SCT010 BKN024 OVC035 M05/M06 A3019 RMK AO2 T10461061
KONL 221915Z AUTO 12006KT 1 3/4SM -SN SCT009 BKN013 OVC029 M05/M06 A3022 RMK AO2 T10471064
KONL 221855Z AUTO 13003KT 1SM -SN OVC013 M05/M06 A3023 RMK AO2 P0002 T10481062
KONL 221835Z AUTO 12006KT 2SM -SN BKN009 BKN031 OVC039 M05/M06 A3025 RMK AO2 P0002 T10471064
KONL 221815Z AUTO 14004KT 3SM UP SCT007 BKN043 OVC050 M05/M06 A3027 RMK AO2 P0001 T10501063
KONL 221755Z AUTO 11005KT 1SM -SN BKN013 OVC027 M05/M06 A3028 RMK AO2 P0002 60002 T10531063 11053 21073
KONL 221735Z AUTO 00000KT 3/4SM -SN OVC010 M05/M06 A3031 RMK AO2 P0001 T10551062
KONL 221715Z AUTO 12003KT 1/2SM SN OVC008 M06/M06 A3031 RMK AO2 T10561062
KONL 221655Z AUTO 00000KT 1/2SM SN OVC008 M06/M06 A3032 RMK AO2 T10581065
KONL 221635Z AUTO 14004KT 1 1/4SM -SN OVC016 M06/M07 A3032 RMK AO2 T10571068
KONL 221615Z AUTO 14004KT 10SM OVC016 M06/M07 A3033 RMK AO2 T10581070
KONL 221555Z AUTO 15004KT 10SM OVC016 M06/M07 A3032 RMK AO2 T10601070
KONL 221535Z AUTO 14003KT 10SM OVC018 M06/M07 A3032 RMK AO2 T10611071
KONL 221515Z AUTO 13004KT 10SM OVC020 M06/M07 A3032 RMK AO2 T10621072
KONL 221455Z AUTO 12005KT 10SM OVC022 M06/M07 A3032 RMK AO2 T10651075
KONL 221435Z AUTO 11005KT 7SM OVC024 M07/M08 A3032 RMK AO2 T10681076
KONL 221415Z AUTO 13006KT 10SM OVC024 M07/M08 A3033 RMK AO2 T10701077
KONL 221355Z AUTO 13005KT 10SM -SN SCT026 SCT037 OVC085 M07/M08 A3033 RMK AO2 T10711078
KONL 221335Z AUTO 13004KT 7SM -SN OVC095 M07/M08 A3033 RMK AO2 T10721080
KONL 221315Z AUTO 13005KT 5SM -SN SCT043 SCT060 OVC095 M07/M08 A3033 RMK AO2 T10721080
KONL 221255Z AUTO 13004KT 5SM -SN SCT043 BKN049 OVC095 M07/M08 A3033 RMK AO2 T10711080
KONL 221235Z AUTO 13005KT 7SM -SN SCT042 BKN060 OVC075 M07/M08 A3033 RMK AO2 T10711080
KONL 221215Z AUTO 14005KT 4SM -SN BKN042 OVC048 M07/M08 A3033 RMK AO2 T10711080
KONL 221155Z AUTO 14005KT 10SM UP BKN050 OVC070 M07/M08 A3034 RMK AO2 LTG DSNT NW T10711081 11070 21075
KONL 221135Z AUTO 15005KT 10SM UP BKN070 OVC100 M07/M08 A3034 RMK AO2 T10721082
KONL 221115Z AUTO 15006KT 10SM -SN SCT047 BKN070 OVC100 M07/M08 A3035 RMK AO2 T10731082
KONL 221055Z AUTO 15008KT 10SM -SN SCT044 OVC060 M07/M08 A3035 RMK AO2 T10731083
KONL 221035Z AUTO 16009KT 10SM SCT049 BKN070 OVC090 M07/M08 A3035 RMK AO2 T10731083
KONL 221015Z AUTO 16009KT 10SM OVC090 M07/M08 A3036 RMK AO2 T10721083
KONL 220955Z AUTO 16009KT 10SM OVC090 M07/M08 A3037 RMK AO2 T10731083
KONL 220935Z AUTO 16005KT 10SM SCT050 BKN065 OVC110 M07/M08 A3036 RMK AO2 T10731083
KONL 220915Z AUTO 16007KT 5SM -SN BKN033 BKN045 OVC050 M07/M08 A3038 RMK AO2 T10711082
KONL 220855Z AUTO 16008KT 7SM -SN SCT035 BKN040 OVC060 M07/M08 A3039 RMK AO2 T10701085
KONL 220835Z AUTO 16008KT 10SM -SN BKN060 OVC070 M07/M09 A3039 RMK AO2 T10701090
KONL 220815Z AUTO 17007KT 10SM SCT050 BKN075 OVC090 M07/M10 A3039 RMK AO2 T10711097
KONL 220755Z AUTO 16006KT 10SM SCT050 BKN060 OVC090 M07/M10 A3039 RMK AO2 T10711098
KONL 220735Z AUTO 16006KT 10SM BKN050 BKN060 OVC095 M07/M10 A3040 RMK AO2 T10711097
KONL 220715Z AUTO 16006KT 10SM -SN BKN050 OVC065 M07/M10 A3041 RMK AO2 T10711096
KONL 220655Z AUTO 15009KT 10SM -SN OVC065 M07/M09 A3042 RMK AO2 T10711095
KONL 220635Z AUTO 17005KT 5SM -SN SCT038 SCT046 OVC065 M07/M09 A3043 RMK AO2 T10721095
KONL 220615Z AUTO 16006KT 3SM -SN SCT028 BKN038 OVC065 M07/M10 A3043 RMK AO2 T10721101
KONL 220555Z AUTO 16007KT 10SM -SN SCT032 SCT039 OVC046 M07/M11 A3043 RMK AO2 T10731106 11063 21081 410561231
KONL 220535Z AUTO 16005KT 10SM SCT048 BKN065 OVC080 M07/M11 A3043 RMK AO2 T10751111
KONL 220515Z AUTO 15006KT 10SM BKN080 OVC100 M08/M11 A3043 RMK AO2 T10781115
KONL 220455Z AUTO 15005KT 10SM SCT080 OVC100 M08/M12 A3043 RMK AO2 T10811120
KONL 220435Z AUTO 15006KT 10SM OVC080 M08/M12 A3043 RMK AO2 T10781117
KONL 220415Z AUTO 15008KT 10SM BKN080 OVC100 M08/M12 A3044 RMK AO2 T10781116
KONL 220355Z AUTO 15008KT 10SM SCT090 OVC100 M07/M11 A3044 RMK AO2 T10751111
KONL 220035Z AUTO 14005KT 10SM OVC100 M07/M12 A3045 RMK AO2 T10681122
KONL 220015Z AUTO 14005KT 10SM BKN100 M07/M12 A3045 RMK AO2 T10721125
KONL 212355Z AUTO 14005KT 10SM OVC100 M06/M12 A3045 RMK AO2 T10621125 11056 21096
KONL 212335Z AUTO 15004KT 10SM BKN100 M06/M12 A3045 RMK AO2 T10581125
KONL 212315Z AUTO 16005KT 10SM CLR M06/M13 A3045 RMK AO2 T10591128
KONL 212255Z AUTO 17005KT 10SM SCT100 M06/M12 A3045 RMK AO2 T10571125
KONL 212235Z AUTO 17007KT 10SM SCT100 M06/M13 A3045 RMK AO2 T10581131
KONL 212215Z AUTO 17006KT 10SM SCT100 M06/M13 A3045 RMK AO2 T10571129
KONL 212155Z AUTO 17006KT 10SM SCT100 M06/M13 A3047 RMK AO2 T10601131
KONL 212135Z AUTO 18005KT 10SM CLR M06/M13 A3047 RMK AO2 T10611135
KONL 212115Z AUTO 17005KT 10SM CLR M06/M14 A3047 RMK AO2 T10631136
KONL 212055Z AUTO 16007KT 10SM CLR M07/M14 A3047 RMK AO2 T10661143
KONL 212035Z AUTO 19006KT 10SM CLR M07/M14 A3048 RMK AO2 T10701145
KONL 212015Z AUTO 18005KT 10SM CLR M07/M15 A3049 RMK AO2 T10731152
KONL 211955Z AUTO 18005KT 10SM CLR M08/M15 A3050 RMK AO2 T10771155
KONL 211935Z AUTO 19005KT 10SM SCT110 M08/M16 A3051 RMK AO2 T10801157
KONL 211915Z AUTO 19007KT 10SM SCT110 M08/M16 A3052 RMK AO2 T10851157
KONL 211855Z AUTO 19010KT 10SM CLR M09/M15 A3053 RMK AO2 T10861154